Time;durP1;ratioP1;P1;durP2;ratioP2;P2;SDS_P1;SDS_P2;PMS_P1;PMS_P2;Temp;Humidity;BMP_temperature;BMP_pressure;BME280_temperature;BME280_humidity;BME280_pressure;Samples;Min_cycle;Max_cycle;Signal;HPM_P1;HPM_P2
2023/04/16 00:01:06;;;;;;;;;;;7.10;99.90;;;;;;5011880;28;19948;-87
2023/04/16 00:03:33;;;;;;;;;;;7.10;99.90;;;;;;5006816;28;19933;-88
2023/04/16 00:06:01;;;;;;;;;;;7.10;99.90;;;;;;5007567;28;19925;-91
2023/04/16 00:08:28;;;;;;;;;;;7.10;99.90;;;;;;5010430;28;20024;-87
2023/04/16 00:10:55;;;;;;;;;;;7.10;99.90;;;;;;5016749;28;20435;-93
2023/04/16 00:13:22;;;;;;;;;;;7.00;99.90;;;;;;5009328;28;19988;-90
2023/04/16 00:15:48;;;;;;;;;;;7.10;99.90;;;;;;5023394;28;19926;-89
2023/04/16 00:18:15;;;;;;;;;;;7.10;99.90;;;;;;5003346;28;19925;-91
2023/04/16 00:20:42;;;;;;;;;;;7.00;99.90;;;;;;5022758;28;19925;-91
2023/04/16 00:23:10;;;;;;;;;;;7.10;99.90;;;;;;5004066;28;19926;-89
2023/04/16 00:25:37;;;;;;;;;;;7.00;99.90;;;;;;5006976;28;20015;-89
2023/04/16 00:28:04;;;;;;;;;;;7.00;99.90;;;;;;5004651;28;19992;-89
2023/04/16 00:30:32;;;;;;;;;;;7.10;99.90;;;;;;5011335;28;20020;-89
2023/04/16 00:32:58;;;;;;;;;;;7.00;99.90;;;;;;5000436;28;19925;-88
2023/04/16 00:35:25;;;;;;;;;;;7.10;99.90;;;;;;5010476;28;20422;-90
2023/04/16 00:37:52;;;;;;;;;;;7.00;99.90;;;;;;5005461;28;19932;-88
2023/04/16 00:40:20;;;;;;;;;;;7.00;99.90;;;;;;5000486;28;20252;-90
2023/04/16 00:42:47;;;;;;;;;;;7.00;99.90;;;;;;5019185;28;20352;-90
2023/04/16 00:45:14;;;;;;;;;;;7.00;99.90;;;;;;5004163;28;19956;-88
2023/04/16 00:47:41;;;;;;;;;;;7.10;99.90;;;;;;5010119;28;19951;-92
2023/04/16 00:50:08;;;;;;;;;;;7.00;99.90;;;;;;5009651;28;19929;-88
2023/04/16 00:52:35;;;;;;;;;;;7.00;99.90;;;;;;5005685;28;19953;-88
2023/04/16 00:55:02;;;;;;;;;;;7.00;99.90;;;;;;5009815;28;19980;-88
2023/04/16 00:57:31;;;;;;;;;;;7.00;99.90;;;;;;5006332;28;19926;-91
2023/04/16 00:59:58;;;;;;;;;;;7.00;99.90;;;;;;5006302;28;19926;-89
2023/04/16 01:02:25;;;;;;;;;;;7.00;99.90;;;;;;5007495;28;19933;-90
2023/04/16 01:04:52;;;;;;;;;;;7.00;99.90;;;;;;5013214;28;19963;-91
2023/04/16 01:07:18;;;;;;;;;;;7.00;99.90;;;;;;5008622;28;20024;-88
2023/04/16 01:09:45;;;;;;;;;;;7.00;99.90;;;;;;5012873;28;20399;-86
2023/04/16 01:12:12;;;;;;;;;;;7.00;99.90;;;;;;5011706;28;19964;-87
2023/04/16 01:14:40;;;;;;;;;;;7.00;99.90;;;;;;5011252;28;20007;-89
2023/04/16 01:17:07;;;;;;;;;;;7.00;99.90;;;;;;5014629;28;19941;-88
2023/04/16 01:19:36;;;;;;;;;;;7.00;99.90;;;;;;5041170;28;19948;-91
2023/04/16 01:22:04;;;;;;;;;;;7.00;99.90;;;;;;5027579;28;19940;-92
2023/04/16 01:24:31;;;;;;;;;;;7.00;99.90;;;;;;5019417;28;20404;-89
2023/04/16 01:26:59;;;;;;;;;;;7.00;99.90;;;;;;5008248;28;20009;-91
2023/04/16 01:29:26;;;;;;;;;;;7.00;99.90;;;;;;5007456;28;20017;-89
2023/04/16 01:31:55;;;;;;;;;;;7.00;99.90;;;;;;5014504;28;19941;-89
2023/04/16 01:34:25;;;;;;;;;;;6.90;99.90;;;;;;5013715;28;19933;-92
2023/04/16 01:36:52;;;;;;;;;;;6.90;99.90;;;;;;5009031;28;19972;-90
2023/04/16 01:39:21;;;;;;;;;;;6.90;99.90;;;;;;5009867;28;20303;-89
2023/04/16 01:41:48;;;;;;;;;;;7.00;99.90;;;;;;5024469;28;19925;-88
2023/04/16 01:44:15;;;;;;;;;;;7.00;99.90;;;;;;5015795;28;20500;-87
2023/04/16 01:46:48;;;;;;;;;;;6.90;99.90;;;;;;5008405;28;19925;-92
2023/04/16 01:49:15;;;;;;;;;;;6.90;99.90;;;;;;5010649;28;19930;-93
2023/04/16 01:51:42;;;;;;;;;;;6.90;99.90;;;;;;5014274;28;19976;-89
2023/04/16 01:54:10;;;;;;;;;;;6.90;99.90;;;;;;5014981;28;19956;-89
2023/04/16 01:56:38;;;;;;;;;;;6.90;99.90;;;;;;5006683;28;20615;-88
2023/04/16 01:59:05;;;;;;;;;;;6.90;99.90;;;;;;4997742;28;19925;-91
2023/04/16 02:01:37;;;;;;;;;;;6.90;99.90;;;;;;5024454;28;20008;-88
2023/04/16 02:04:05;;;;;;;;;;;6.90;99.90;;;;;;5013364;28;20430;-87
2023/04/16 02:06:32;;;;;;;;;;;6.90;99.90;;;;;;5008065;28;19941;-91
2023/04/16 02:08:59;;;;;;;;;;;6.90;99.90;;;;;;5010598;28;20240;-89
2023/04/16 02:11:26;;;;;;;;;;;6.90;99.90;;;;;;5009625;28;19925;-89
2023/04/16 02:13:54;;;;;;;;;;;6.90;99.90;;;;;;5010545;28;19925;-88
2023/04/16 02:16:21;;;;;;;;;;;6.90;99.90;;;;;;5002577;28;19973;-91
2023/04/16 02:19:17;;;;;;;;;;;6.90;99.90;;;;;;5006161;28;21100;-89
2023/04/16 02:21:44;;;;;;;;;;;6.90;99.90;;;;;;5006720;28;19934;-92
2023/04/16 02:24:11;;;;;;;;;;;6.90;99.90;;;;;;5019783;28;20016;-88
2023/04/16 02:26:38;;;;;;;;;;;6.90;99.90;;;;;;5007234;28;19930;-87
2023/04/16 02:29:12;;;;;;;;;;;6.80;99.90;;;;;;5011757;28;19941;-88
2023/04/16 02:31:44;;;;;;;;;;;6.90;99.90;;;;;;5003444;28;20023;-87
2023/04/16 02:34:11;;;;;;;;;;;6.90;99.90;;;;;;5026818;28;19929;-87
2023/04/16 02:36:38;;;;;;;;;;;6.90;99.90;;;;;;5012731;28;19925;-86
2023/04/16 02:39:05;;;;;;;;;;;6.80;99.90;;;;;;5002407;28;19929;-88
2023/04/16 02:41:32;;;;;;;;;;;6.90;99.90;;;;;;5008157;28;20023;-87
2023/04/16 02:43:58;;;;;;;;;;;6.80;99.90;;;;;;5013001;28;20364;-89
2023/04/16 02:46:27;;;;;;;;;;;6.90;99.90;;;;;;5007474;28;20016;-88
2023/04/16 02:48:54;;;;;;;;;;;6.90;99.90;;;;;;5001573;28;20033;-88
2023/04/16 02:51:21;;;;;;;;;;;6.80;99.90;;;;;;5006409;28;19925;-89
2023/04/16 02:53:48;;;;;;;;;;;6.90;99.90;;;;;;5012412;28;19926;-90
2023/04/16 02:56:15;;;;;;;;;;;6.90;99.90;;;;;;5003353;28;19964;-89
2023/04/16 02:58:42;;;;;;;;;;;6.90;99.90;;;;;;5026057;28;20388;-90
2023/04/16 03:01:09;;;;;;;;;;;6.80;99.90;;;;;;5008836;28;20406;-88
2023/04/16 03:03:37;;;;;;;;;;;6.90;99.90;;;;;;5014329;28;19933;-89
2023/04/16 03:06:04;;;;;;;;;;;6.80;99.90;;;;;;5006239;28;19926;-89
2023/04/16 03:08:31;;;;;;;;;;;6.80;99.90;;;;;;5015648;28;20300;-88
2023/04/16 03:10:57;;;;;;;;;;;6.80;99.90;;;;;;5011213;28;20407;-88
2023/04/16 03:13:24;;;;;;;;;;;6.80;99.90;;;;;;5009632;28;19968;-89
2023/04/16 03:15:51;;;;;;;;;;;6.80;99.90;;;;;;5001475;28;19936;-92
2023/04/16 03:18:18;;;;;;;;;;;6.80;99.90;;;;;;5006756;28;20366;-88
2023/04/16 03:20:51;;;;;;;;;;;6.80;99.90;;;;;;5010678;28;20395;-89
2023/04/16 03:23:17;;;;;;;;;;;6.80;99.90;;;;;;5017472;28;19925;-89
2023/04/16 03:25:46;;;;;;;;;;;6.80;99.90;;;;;;5003402;28;20450;-88
2023/04/16 03:28:16;;;;;;;;;;;6.80;99.90;;;;;;5000437;28;20335;-89
2023/04/16 03:30:51;;;;;;;;;;;6.80;99.90;;;;;;5005662;28;19933;-89
2023/04/16 03:33:18;;;;;;;;;;;6.80;99.90;;;;;;5003213;28;19925;-90
2023/04/16 03:35:46;;;;;;;;;;;6.80;99.90;;;;;;5010240;28;20024;-88
2023/04/16 03:38:14;;;;;;;;;;;6.80;99.90;;;;;;5010585;28;19934;-90
2023/04/16 03:40:40;;;;;;;;;;;6.90;99.90;;;;;;5007678;28;20007;-92
2023/04/16 03:43:07;;;;;;;;;;;6.80;99.90;;;;;;5001576;28;20001;-87
2023/04/16 03:45:34;;;;;;;;;;;6.80;99.90;;;;;;4994794;28;20470;-91
2023/04/16 03:48:01;;;;;;;;;;;6.90;99.90;;;;;;5006877;28;20003;-88
2023/04/16 03:50:28;;;;;;;;;;;6.90;99.90;;;;;;5004526;28;19925;-90
2023/04/16 03:52:56;;;;;;;;;;;6.90;99.90;;;;;;5005987;28;19940;-89
2023/04/16 03:55:24;;;;;;;;;;;6.90;99.90;;;;;;5002919;28;20596;-89
2023/04/16 03:57:50;;;;;;;;;;;6.80;99.90;;;;;;5003356;28;19986;-91
2023/04/16 04:00:17;;;;;;;;;;;6.90;99.90;;;;;;5006989;28;19934;-89
2023/04/16 04:03:07;;;;;;;;;;;6.90;99.90;;;;;;4982634;28;19933;-88
2023/04/16 04:05:35;;;;;;;;;;;6.90;99.90;;;;;;5009608;28;19933;-91
2023/04/16 04:08:05;;;;;;;;;;;6.90;99.90;;;;;;5018387;28;19940;-92
2023/04/16 04:10:32;;;;;;;;;;;6.80;99.90;;;;;;5001631;28;19926;-89
2023/04/16 04:13:00;;;;;;;;;;;6.80;99.90;;;;;;5012546;28;19964;-88
2023/04/16 04:15:27;;;;;;;;;;;6.90;99.90;;;;;;5001963;28;19925;-89
2023/04/16 04:17:55;;;;;;;;;;;6.90;99.90;;;;;;5006559;28;19929;-88
2023/04/16 04:20:23;;;;;;;;;;;6.90;99.90;;;;;;5006745;28;19940;-89
2023/04/16 04:22:51;;;;;;;;;;;6.90;99.90;;;;;;5008727;28;19979;-88
2023/04/16 04:25:22;;;;;;;;;;;6.90;99.90;;;;;;5022347;28;20064;-89
2023/04/16 04:27:49;;;;;;;;;;;6.80;99.90;;;;;;5007885;28;19984;-87
2023/04/16 04:30:16;;;;;;;;;;;6.90;99.90;;;;;;5007211;28;19976;-90
2023/04/16 04:32:44;;;;;;;;;;;6.90;99.90;;;;;;5009931;28;19971;-89
2023/04/16 04:35:11;;;;;;;;;;;6.90;99.90;;;;;;5007850;28;19932;-88
2023/04/16 04:37:38;;;;;;;;;;;6.90;99.90;;;;;;5007990;28;19925;-92
2023/04/16 04:40:12;;;;;;;;;;;6.90;99.90;;;;;;5009887;28;19929;-88
2023/04/16 04:42:41;;;;;;;;;;;6.90;99.90;;;;;;5005329;28;19980;-89
2023/04/16 04:45:10;;;;;;;;;;;6.90;99.90;;;;;;5007049;28;20376;-90
2023/04/16 04:47:37;;;;;;;;;;;6.90;99.90;;;;;;5032858;28;19933;-89
2023/04/16 04:50:04;;;;;;;;;;;6.90;99.90;;;;;;5016684;28;19930;-92
2023/04/16 04:52:32;;;;;;;;;;;6.90;99.90;;;;;;5033728;28;19957;-93
2023/04/16 04:55:00;;;;;;;;;;;6.90;99.90;;;;;;5013027;28;19987;-88
2023/04/16 04:57:27;;;;;;;;;;;6.90;99.90;;;;;;5010871;28;20001;-92
2023/04/16 04:59:56;;;;;;;;;;;6.90;99.90;;;;;;5014254;28;19932;-89
2023/04/16 05:02:23;;;;;;;;;;;6.90;99.90;;;;;;5005406;28;19929;-89
2023/04/16 05:04:50;;;;;;;;;;;6.90;99.90;;;;;;5013578;28;20376;-91
2023/04/16 05:07:17;;;;;;;;;;;6.90;99.90;;;;;;5011729;28;19929;-89
2023/04/16 05:09:43;;;;;;;;;;;6.90;99.90;;;;;;5010299;28;19933;-88
2023/04/16 05:12:10;;;;;;;;;;;6.90;99.90;;;;;;5014352;28;20334;-93
2023/04/16 05:14:37;;;;;;;;;;;6.90;99.90;;;;;;5012736;28;19964;-87
2023/04/16 05:17:06;;;;;;;;;;;6.90;99.90;;;;;;5015615;28;20023;-88
2023/04/16 05:19:33;;;;;;;;;;;6.90;99.90;;;;;;5009510;28;19926;-91
2023/04/16 05:22:01;;;;;;;;;;;6.90;99.90;;;;;;5010752;28;19926;-87
2023/04/16 05:24:28;;;;;;;;;;;6.90;99.90;;;;;;5011637;28;19938;-92
2023/04/16 05:26:55;;;;;;;;;;;6.90;99.90;;;;;;5007782;28;19925;-91
2023/04/16 05:29:22;;;;;;;;;;;6.90;99.90;;;;;;5008137;28;19925;-87
2023/04/16 05:31:49;;;;;;;;;;;7.00;99.90;;;;;;5017844;28;20020;-90
2023/04/16 05:34:17;;;;;;;;;;;6.90;99.90;;;;;;5008952;28;19930;-91
2023/04/16 05:36:44;;;;;;;;;;;6.90;99.90;;;;;;5007290;28;19930;-86
2023/04/16 05:39:11;;;;;;;;;;;7.00;99.90;;;;;;5009352;28;19932;-86
2023/04/16 05:41:38;;;;;;;;;;;7.00;99.90;;;;;;5009672;28;19936;-89
2023/04/16 05:44:05;;;;;;;;;;;7.00;99.90;;;;;;5010840;28;19980;-91
2023/04/16 05:46:32;;;;;;;;;;;7.00;99.90;;;;;;4999498;28;19936;-89
2023/04/16 05:48:59;;;;;;;;;;;7.00;99.90;;;;;;5001360;28;20327;-88
2023/04/16 05:51:27;;;;;;;;;;;7.00;99.90;;;;;;5004137;28;20395;-89
2023/04/16 05:53:54;;;;;;;;;;;7.00;99.90;;;;;;5014205;28;19939;-90
2023/04/16 05:56:22;;;;;;;;;;;7.00;99.90;;;;;;4995644;28;19934;-92
2023/04/16 05:58:49;;;;;;;;;;;7.00;99.90;;;;;;5014461;28;19983;-89
2023/04/16 06:01:15;;;;;;;;;;;7.00;99.90;;;;;;5010699;28;20431;-92
2023/04/16 06:03:43;;;;;;;;;;;7.00;99.90;;;;;;5017132;28;20400;-90
2023/04/16 06:06:10;;;;;;;;;;;7.00;99.90;;;;;;5010294;28;19993;-91
2023/04/16 06:08:38;;;;;;;;;;;7.00;99.90;;;;;;5013778;28;20422;-89
2023/04/16 06:11:05;;;;;;;;;;;7.00;99.90;;;;;;5019388;28;19968;-92
2023/04/16 06:13:32;;;;;;;;;;;7.00;99.90;;;;;;5008356;28;19932;-91
2023/04/16 06:15:59;;;;;;;;;;;7.00;99.90;;;;;;5012583;28;19931;-90
2023/04/16 06:18:26;;;;;;;;;;;7.00;99.90;;;;;;5013684;28;20184;-89
2023/04/16 06:20:52;;;;;;;;;;;7.00;99.90;;;;;;5009668;28;19925;-90
2023/04/16 06:23:20;;;;;;;;;;;7.00;99.90;;;;;;5010049;28;20431;-88
2023/04/16 06:25:48;;;;;;;;;;;7.10;99.90;;;;;;5014911;28;20408;-89
2023/04/16 06:28:15;;;;;;;;;;;7.00;99.90;;;;;;5013155;28;19982;-90
2023/04/16 06:30:41;;;;;;;;;;;7.00;99.90;;;;;;5027778;28;19933;-90
2023/04/16 06:33:09;;;;;;;;;;;7.00;99.90;;;;;;5004542;28;19936;-92
2023/04/16 06:35:36;;;;;;;;;;;7.00;99.90;;;;;;5007665;28;19925;-90
2023/04/16 06:38:03;;;;;;;;;;;7.00;99.90;;;;;;5016364;28;19925;-90
2023/04/16 06:40:30;;;;;;;;;;;7.10;99.90;;;;;;5019297;28;19925;-89
2023/04/16 06:42:58;;;;;;;;;;;7.00;99.90;;;;;;5012863;28;19925;-91
2023/04/16 06:45:25;;;;;;;;;;;7.10;99.90;;;;;;5012303;28;20335;-93
2023/04/16 06:47:52;;;;;;;;;;;7.10;99.90;;;;;;5014579;28;19925;-90
2023/04/16 06:50:18;;;;;;;;;;;7.10;99.90;;;;;;5009118;28;19935;-93
2023/04/16 06:52:45;;;;;;;;;;;7.10;99.90;;;;;;5018856;28;19925;-89
2023/04/16 06:55:12;;;;;;;;;;;7.10;99.90;;;;;;5012788;28;19926;-89
2023/04/16 06:57:41;;;;;;;;;;;7.10;99.90;;;;;;5016833;28;19926;-93
2023/04/16 07:00:11;;;;;;;;;;;7.10;99.90;;;;;;5019777;28;20288;-91
2023/04/16 07:02:37;;;;;;;;;;;7.10;99.90;;;;;;5028772;28;19929;-90
2023/04/16 07:05:05;;;;;;;;;;;7.10;99.90;;;;;;5009914;28;20016;-90
2023/04/16 07:07:32;;;;;;;;;;;7.10;99.90;;;;;;5013021;28;19979;-91
2023/04/16 07:09:59;;;;;;;;;;;7.10;99.90;;;;;;5010712;28;19934;-89
2023/04/16 07:12:26;;;;;;;;;;;7.10;99.90;;;;;;5009969;28;19988;-91
2023/04/16 07:14:53;;;;;;;;;;;7.10;99.90;;;;;;5013436;28;20450;-88
2023/04/16 07:17:21;;;;;;;;;;;7.20;99.90;;;;;;5006406;28;20377;-89
2023/04/16 07:19:48;;;;;;;;;;;7.20;99.90;;;;;;5014281;28;19933;-90
2023/04/16 07:22:15;;;;;;;;;;;7.20;99.90;;;;;;5010762;28;19925;-89
2023/04/16 07:24:42;;;;;;;;;;;7.20;99.90;;;;;;5013280;28;20399;-92
2023/04/16 07:27:09;;;;;;;;;;;7.20;99.90;;;;;;5007895;28;19926;-89
2023/04/16 07:29:36;;;;;;;;;;;7.20;99.90;;;;;;5011952;28;19944;-91
2023/04/16 07:32:04;;;;;;;;;;;7.20;99.90;;;;;;5011737;28;19925;-89
2023/04/16 07:34:32;;;;;;;;;;;7.20;99.90;;;;;;5020576;28;19930;-88
2023/04/16 07:36:59;;;;;;;;;;;7.20;99.90;;;;;;5006612;28;20431;-91
2023/04/16 07:39:26;;;;;;;;;;;7.20;99.90;;;;;;5004118;28;19932;-92
2023/04/16 07:41:53;;;;;;;;;;;7.20;99.90;;;;;;5000739;28;19925;-88
2023/04/16 07:44:20;;;;;;;;;;;7.20;99.90;;;;;;5006716;28;20085;-90
2023/04/16 07:46:46;;;;;;;;;;;7.20;99.90;;;;;;5010580;28;19965;-90
2023/04/16 07:49:13;;;;;;;;;;;7.20;99.90;;;;;;5013369;28;20640;-94
2023/04/16 07:51:42;;;;;;;;;;;7.30;99.90;;;;;;5004989;28;19934;-91
2023/04/16 07:54:09;;;;;;;;;;;7.30;99.90;;;;;;5006995;28;19948;-92
2023/04/16 07:56:36;;;;;;;;;;;7.30;99.90;;;;;;5008946;28;20025;-91
2023/04/16 07:59:03;;;;;;;;;;;7.30;99.90;;;;;;5005019;28;19933;-89
2023/04/16 08:01:30;;;;;;;;;;;7.30;99.90;;;;;;5010600;28;19926;-88
2023/04/16 08:03:57;;;;;;;;;;;7.30;99.90;;;;;;5014348;28;19925;-89
2023/04/16 08:06:25;;;;;;;;;;;7.30;99.90;;;;;;5006460;28;19925;-91
2023/04/16 08:08:53;;;;;;;;;;;7.30;99.90;;;;;;5009285;28;20292;-89
2023/04/16 08:11:20;;;;;;;;;;;7.30;99.90;;;;;;5004249;28;20307;-89
2023/04/16 08:13:47;;;;;;;;;;;7.40;99.90;;;;;;5009872;28;20315;-91
2023/04/16 08:16:14;;;;;;;;;;;7.40;99.90;;;;;;5011445;28;19932;-90
2023/04/16 08:18:41;;;;;;;;;;;7.40;99.90;;;;;;5008265;28;19957;-92
2023/04/16 08:21:08;;;;;;;;;;;7.40;99.90;;;;;;5006145;28;20115;-91
2023/04/16 08:23:35;;;;;;;;;;;7.40;99.90;;;;;;5015387;28;20452;-88
2023/04/16 08:26:03;;;;;;;;;;;7.40;99.90;;;;;;5022552;28;19940;-88
2023/04/16 08:28:30;;;;;;;;;;;7.40;99.90;;;;;;5032984;28;19937;-94
2023/04/16 08:30:57;;;;;;;;;;;7.50;99.90;;;;;;5039501;28;19924;-94
2023/04/16 08:33:24;;;;;;;;;;;7.50;99.90;;;;;;5017964;28;19933;-89
2023/04/16 08:35:51;;;;;;;;;;;7.40;99.90;;;;;;5010881;28;20020;-80
2023/04/16 08:38:18;;;;;;;;;;;7.50;99.90;;;;;;5025332;28;20395;-81
2023/04/16 08:40:45;;;;;;;;;;;7.50;99.90;;;;;;5003617;28;20020;-83
2023/04/16 08:43:14;;;;;;;;;;;7.50;99.90;;;;;;5022993;28;19926;-81
2023/04/16 08:45:42;;;;;;;;;;;7.50;99.90;;;;;;5008598;28;20020;-84
2023/04/16 08:48:11;;;;;;;;;;;7.50;99.90;;;;;;5008228;28;20311;-89
2023/04/16 08:50:38;;;;;;;;;;;7.60;99.90;;;;;;5012366;28;19940;-89
2023/04/16 08:53:06;;;;;;;;;;;7.60;99.90;;;;;;5008614;28;19992;-89
2023/04/16 08:55:36;;;;;;;;;;;7.60;99.90;;;;;;5016319;28;19953;-90
2023/04/16 08:58:07;;;;;;;;;;;7.60;99.90;;;;;;5017911;28;19961;-90
2023/04/16 09:00:37;;;;;;;;;;;7.60;99.90;;;;;;5008903;28;20388;-90
2023/04/16 09:03:04;;;;;;;;;;;7.60;99.90;;;;;;5010824;28;19925;-92
2023/04/16 09:05:32;;;;;;;;;;;7.60;99.90;;;;;;5018998;28;19964;-90
2023/04/16 09:07:58;;;;;;;;;;;7.60;99.90;;;;;;5009118;28;19945;-90
2023/04/16 09:10:26;;;;;;;;;;;7.60;99.90;;;;;;5008915;28;20020;-90
2023/04/16 09:12:55;;;;;;;;;;;7.60;99.90;;;;;;5010573;28;20303;-90
2023/04/16 09:15:22;;;;;;;;;;;7.60;99.90;;;;;;5006556;28;19930;-90
2023/04/16 09:17:51;;;;;;;;;;;7.60;99.90;;;;;;5013086;28;19930;-90
2023/04/16 09:20:18;;;;;;;;;;;7.60;99.90;;;;;;5012118;28;20399;-90
2023/04/16 09:22:45;;;;;;;;;;;7.60;99.90;;;;;;5004499;28;20012;-90
2023/04/16 09:25:12;;;;;;;;;;;7.60;99.90;;;;;;5010759;28;19973;-88
2023/04/16 09:27:39;;;;;;;;;;;7.70;99.90;;;;;;5009689;28;19925;-91
2023/04/16 09:30:20;;;;;;;;;;;7.70;99.90;;;;;;5015227;28;20376;-91
2023/04/16 09:32:47;;;;;;;;;;;7.70;99.90;;;;;;5010081;28;19925;-93
2023/04/16 09:35:17;;;;;;;;;;;7.70;99.90;;;;;;5010730;28;19964;-87
2023/04/16 09:37:44;;;;;;;;;;;7.70;99.90;;;;;;5013618;28;19929;-87
2023/04/16 09:40:11;;;;;;;;;;;7.70;99.90;;;;;;5016671;28;19965;-89
2023/04/16 09:42:38;;;;;;;;;;;7.70;99.90;;;;;;5012939;28;19925;-89
2023/04/16 09:45:05;;;;;;;;;;;7.70;99.90;;;;;;5007250;28;19952;-91
2023/04/16 09:47:39;;;;;;;;;;;7.70;99.90;;;;;;5008991;28;20388;-89
2023/04/16 09:50:06;;;;;;;;;;;7.70;99.90;;;;;;5009591;28;19976;-89
2023/04/16 09:52:36;;;;;;;;;;;7.70;99.90;;;;;;5018971;28;19996;-88
2023/04/16 09:55:03;;;;;;;;;;;7.80;99.90;;;;;;5015842;28;19925;-88
2023/04/16 09:57:30;;;;;;;;;;;7.70;99.90;;;;;;5009442;28;19925;-90
2023/04/16 10:00:02;;;;;;;;;;;7.70;99.90;;;;;;5019977;28;19933;-87
2023/04/16 10:02:33;;;;;;;;;;;7.80;99.90;;;;;;5012975;28;19929;-87
2023/04/16 10:05:01;;;;;;;;;;;7.80;99.90;;;;;;5012657;28;19932;-93
2023/04/16 10:07:29;;;;;;;;;;;7.80;99.90;;;;;;5008743;28;19929;-91
2023/04/16 10:09:57;;;;;;;;;;;7.80;99.90;;;;;;5011777;28;19933;-90
2023/04/16 10:12:24;;;;;;;;;;;7.80;99.90;;;;;;5010171;28;19988;-90
2023/04/16 10:14:51;;;;;;;;;;;7.80;99.90;;;;;;5009392;28;19976;-90
2023/04/16 10:17:18;;;;;;;;;;;7.80;99.90;;;;;;5003417;28;19926;-89
2023/04/16 10:19:45;;;;;;;;;;;7.80;99.90;;;;;;5011077;28;20003;-91
2023/04/16 10:22:12;;;;;;;;;;;7.80;99.90;;;;;;5011432;28;19925;-91
2023/04/16 10:24:41;;;;;;;;;;;7.80;99.90;;;;;;5018321;28;20015;-89
2023/04/16 10:27:09;;;;;;;;;;;7.80;99.90;;;;;;5007829;28;19926;-91
2023/04/16 10:29:36;;;;;;;;;;;7.80;99.90;;;;;;5022043;28;19955;-88
2023/04/16 10:32:04;;;;;;;;;;;7.80;99.90;;;;;;5015784;28;19929;-89
2023/04/16 10:34:31;;;;;;;;;;;7.90;99.90;;;;;;5013730;28;20036;-91
2023/04/16 10:36:58;;;;;;;;;;;7.90;99.90;;;;;;5007047;28;20352;-90
2023/04/16 10:39:27;;;;;;;;;;;7.90;99.90;;;;;;5005476;28;19925;-90
2023/04/16 10:42:07;;;;;;;;;;;7.90;99.90;;;;;;5008831;28;19971;-88
2023/04/16 10:44:35;;;;;;;;;;;7.90;99.90;;;;;;5010031;28;19965;-89
2023/04/16 10:47:02;;;;;;;;;;;7.90;99.90;;;;;;5006780;28;20020;-90
2023/04/16 10:49:29;;;;;;;;;;;7.90;99.90;;;;;;5010474;28;20299;-93
2023/04/16 10:51:57;;;;;;;;;;;7.90;99.90;;;;;;4991995;28;19926;-90
2023/04/16 10:54:27;;;;;;;;;;;8.00;99.90;;;;;;4999423;28;20588;-91
2023/04/16 10:56:55;;;;;;;;;;;8.00;99.90;;;;;;4997815;28;19934;-89
2023/04/16 10:59:23;;;;;;;;;;;8.00;99.90;;;;;;4998675;28;19933;-91
2023/04/16 11:01:52;;;;;;;;;;;8.00;99.90;;;;;;4997855;28;19933;-93
2023/04/16 11:04:29;;;;;;;;;;;8.00;99.90;;;;;;5004375;28;19933;-91
2023/04/16 11:07:07;;;;;;;;;;;8.00;99.90;;;;;;5001669;28;19929;-89
2023/04/16 11:09:44;;;;;;;;;;;8.00;99.90;;;;;;5000822;28;19941;-89
2023/04/16 11:12:12;;;;;;;;;;;8.00;99.90;;;;;;5005068;28;20568;-89
2023/04/16 11:14:40;;;;;;;;;;;8.00;99.90;;;;;;5018986;28;19937;-93
2023/04/16 11:17:09;;;;;;;;;;;8.00;99.90;;;;;;5001193;28;19933;-89
2023/04/16 11:19:38;;;;;;;;;;;8.00;99.90;;;;;;5001774;28;20256;-90
2023/04/16 11:22:05;;;;;;;;;;;8.00;99.90;;;;;;5001344;28;19944;-90
2023/04/16 11:24:36;;;;;;;;;;;8.00;99.90;;;;;;5003330;28;20372;-92
2023/04/16 11:27:04;;;;;;;;;;;8.00;99.90;;;;;;5007726;28;19936;-89
2023/04/16 11:29:30;;;;;;;;;;;8.10;99.90;;;;;;4998869;28;19932;-95
2023/04/16 11:31:59;;;;;;;;;;;8.10;99.90;;;;;;4995204;28;21323;-90
2023/04/16 11:34:28;;;;;;;;;;;8.10;99.90;;;;;;5006503;28;19929;-92
2023/04/16 11:36:54;;;;;;;;;;;8.10;99.90;;;;;;5003955;28;19932;-96
2023/04/16 11:39:23;;;;;;;;;;;8.10;99.90;;;;;;5003990;28;19932;-91
2023/04/16 11:41:51;;;;;;;;;;;8.10;99.90;;;;;;5000831;28;19929;-90
2023/04/16 11:44:18;;;;;;;;;;;8.10;99.90;;;;;;5008148;28;19951;-90
2023/04/16 11:46:46;;;;;;;;;;;8.10;99.90;;;;;;4996050;28;20388;-93
2023/04/16 11:49:13;;;;;;;;;;;8.10;99.90;;;;;;5005918;28;19934;-89
2023/04/16 11:51:42;;;;;;;;;;;8.10;99.90;;;;;;5002467;28;20403;-90
2023/04/16 11:54:09;;;;;;;;;;;8.10;99.90;;;;;;5002147;28;19925;-95
2023/04/16 11:56:36;;;;;;;;;;;8.10;99.90;;;;;;5017798;28;19991;-90
2023/04/16 11:59:07;;;;;;;;;;;8.10;99.90;;;;;;5002283;28;20020;-90
2023/04/16 12:01:36;;;;;;;;;;;8.10;99.90;;;;;;5000361;28;19984;-89
2023/04/16 12:04:03;;;;;;;;;;;8.10;99.90;;;;;;5009261;28;19913;-93
2023/04/16 12:06:31;;;;;;;;;;;8.10;99.90;;;;;;5027023;28;19916;-95
2023/04/16 12:09:00;;;;;;;;;;;8.10;99.90;;;;;;5008363;28;20184;-91
2023/04/16 12:11:39;;;;;;;;;;;8.10;99.90;;;;;;5003139;28;19925;-91
2023/04/16 12:14:09;;;;;;;;;;;8.10;99.90;;;;;;4989683;28;19937;-91
2023/04/16 12:16:36;;;;;;;;;;;8.10;99.90;;;;;;4998813;28;19929;-93
2023/04/16 12:19:04;;;;;;;;;;;8.10;99.90;;;;;;5003193;28;20394;-94
2023/04/16 12:21:38;;;;;;;;;;;8.10;99.90;;;;;;5003114;28;19934;-91
2023/04/16 12:24:07;;;;;;;;;;;8.10;99.90;;;;;;4999692;28;19933;-90
2023/04/16 12:26:42;;;;;;;;;;;8.10;99.90;;;;;;4999234;28;19933;-93
2023/04/16 12:29:16;;;;;;;;;;;8.10;99.90;;;;;;4996585;28;19925;-91
2023/04/16 12:31:43;;;;;;;;;;;8.10;99.90;;;;;;5015020;28;19929;-90
2023/04/16 12:34:10;;;;;;;;;;;8.10;99.90;;;;;;4996387;28;20012;-93
2023/04/16 12:36:37;;;;;;;;;;;8.10;99.90;;;;;;5001888;28;19929;-90
2023/04/16 12:39:04;;;;;;;;;;;8.10;99.90;;;;;;5000058;28;19925;-93
2023/04/16 12:41:32;;;;;;;;;;;8.10;99.90;;;;;;4999449;28;19929;-90
2023/04/16 12:44:03;;;;;;;;;;;8.10;99.90;;;;;;4998872;28;19926;-94
2023/04/16 12:46:30;;;;;;;;;;;8.10;99.90;;;;;;4999034;28;19934;-92
2023/04/16 12:48:57;;;;;;;;;;;8.10;99.90;;;;;;4998998;28;20012;-89
2023/04/16 12:51:24;;;;;;;;;;;8.10;99.90;;;;;;4995309;28;20304;-89
2023/04/16 12:53:51;;;;;;;;;;;8.10;99.90;;;;;;5002423;28;19933;-92
2023/04/16 12:56:18;;;;;;;;;;;8.10;99.90;;;;;;5003431;28;20054;-75
2023/04/16 12:58:49;;;;;;;;;;;8.10;99.90;;;;;;4996283;28;19948;-91
2023/04/16 13:01:16;;;;;;;;;;;8.10;99.90;;;;;;5004806;28;19933;-89
2023/04/16 13:03:46;;;;;;;;;;;8.10;99.90;;;;;;5005993;28;19979;-90
2023/04/16 13:06:13;;;;;;;;;;;8.10;99.90;;;;;;5016176;28;19960;-89
2023/04/16 13:08:40;;;;;;;;;;;8.10;99.90;;;;;;5007095;28;19926;-89
2023/04/16 13:11:08;;;;;;;;;;;8.10;99.90;;;;;;5013565;28;20346;-89
2023/04/16 13:13:34;;;;;;;;;;;8.10;99.90;;;;;;5011306;28;20329;-90
2023/04/16 13:16:05;;;;;;;;;;;8.10;99.90;;;;;;5014284;28;19929;-89
2023/04/16 13:18:36;;;;;;;;;;;8.10;99.90;;;;;;5006459;28;19933;-92
2023/04/16 13:21:03;;;;;;;;;;;8.10;99.90;;;;;;5007759;28;19991;-90
2023/04/16 13:23:30;;;;;;;;;;;8.20;99.90;;;;;;5011819;28;20385;-88
2023/04/16 13:25:57;;;;;;;;;;;8.10;99.90;;;;;;5005909;28;20466;-89
2023/04/16 13:28:24;;;;;;;;;;;8.10;99.90;;;;;;5002965;28;19942;-90
2023/04/16 13:30:51;;;;;;;;;;;8.10;99.90;;;;;;5016464;28;19929;-92
2023/04/16 13:33:19;;;;;;;;;;;8.10;99.90;;;;;;5007802;28;19980;-92
2023/04/16 13:35:46;;;;;;;;;;;8.10;99.90;;;;;;5010777;28;19933;-88
2023/04/16 13:38:13;;;;;;;;;;;8.20;99.90;;;;;;5005842;28;20024;-91
2023/04/16 13:40:40;;;;;;;;;;;8.20;99.90;;;;;;5002086;28;19930;-88
2023/04/16 13:43:07;;;;;;;;;;;8.20;99.90;;;;;;5008871;28;19926;-89
2023/04/16 13:45:34;;;;;;;;;;;8.20;99.90;;;;;;5008365;28;19936;-92
2023/04/16 13:48:01;;;;;;;;;;;8.20;99.90;;;;;;5006547;28;20020;-90
2023/04/16 13:50:29;;;;;;;;;;;8.20;99.90;;;;;;5006712;28;20359;-90
2023/04/16 13:52:56;;;;;;;;;;;8.20;99.90;;;;;;5003418;28;19925;-90
2023/04/16 13:55:23;;;;;;;;;;;8.20;99.90;;;;;;5009871;28;19929;-87
2023/04/16 13:57:52;;;;;;;;;;;8.20;99.90;;;;;;5001200;28;19929;-91
2023/04/16 14:00:19;;;;;;;;;;;8.20;99.90;;;;;;5009609;28;19932;-90
2023/04/16 14:02:47;;;;;;;;;;;8.20;99.90;;;;;;4993283;28;19930;-88
2023/04/16 14:05:16;;;;;;;;;;;8.20;99.90;;;;;;4999400;28;19940;-86
2023/04/16 14:07:45;;;;;;;;;;;8.20;99.90;;;;;;5005037;28;19941;-89
2023/04/16 14:10:12;;;;;;;;;;;8.20;99.90;;;;;;5004280;28;19972;-90
2023/04/16 14:12:39;;;;;;;;;;;8.20;99.90;;;;;;5002116;28;19926;-91
2023/04/16 14:15:08;;;;;;;;;;;8.20;99.90;;;;;;4995711;28;19933;-92
2023/04/16 14:17:35;;;;;;;;;;;8.20;99.90;;;;;;4998042;28;20466;-92
2023/04/16 14:20:03;;;;;;;;;;;8.20;99.90;;;;;;4998145;28;19929;-93
2023/04/16 14:22:30;;;;;;;;;;;8.20;99.90;;;;;;5003278;28;19925;-90
2023/04/16 14:24:59;;;;;;;;;;;8.20;99.90;;;;;;5016471;28;19965;-91
2023/04/16 14:27:27;;;;;;;;;;;8.20;99.90;;;;;;5002369;28;19925;-92
2023/04/16 14:29:54;;;;;;;;;;;8.20;99.90;;;;;;4997230;28;19933;-90
2023/04/16 14:32:21;;;;;;;;;;;8.20;99.90;;;;;;4996341;28;19929;-91
2023/04/16 14:34:48;;;;;;;;;;;8.20;99.90;;;;;;5003582;28;20238;-90